createdAt,value
2022-08-02T00:00:13.065Z,16.96
2022-08-02T00:02:39.744Z,16.86
2022-08-02T00:05:07.189Z,16.82
2022-08-02T00:07:39.124Z,16.93
2022-08-02T00:10:12.254Z,16.77
2022-08-02T00:12:39.472Z,16.69
2022-08-02T00:15:07.606Z,16.61
2022-08-02T00:17:35.812Z,16.54
2022-08-02T00:20:02.478Z,16.45
2022-08-02T00:22:28.939Z,16.55
2022-08-02T00:24:55.458Z,16.48
2022-08-02T00:27:22.133Z,16.31
2022-08-02T00:29:53.406Z,16.34
2022-08-02T00:32:20.595Z,16.34
2022-08-02T00:34:47.085Z,16.35
2022-08-02T00:37:14.370Z,16.38
2022-08-02T00:39:42.250Z,16.28
2022-08-02T00:42:10.020Z,16.28
2022-08-02T00:44:37.400Z,16.27
2022-08-02T00:47:06.967Z,16.20
2022-08-02T00:49:33.494Z,16.24
2022-08-02T00:52:00.745Z,16.25
2022-08-02T00:54:27.341Z,16.14
2022-08-02T00:56:53.742Z,16.09
2022-08-02T00:59:20.131Z,16.03
2022-08-02T01:01:57.187Z,16.10
2022-08-02T01:04:31.010Z,16.06
2022-08-02T01:07:12.549Z,15.89
2022-08-02T01:09:41.323Z,15.83
2022-08-02T01:12:08.271Z,15.75
2022-08-02T01:14:35.033Z,15.63
2022-08-02T01:17:28.944Z,15.75
2022-08-02T01:20:41.536Z,15.74
2022-08-02T01:23:23.423Z,15.82
2022-08-02T01:25:58.882Z,15.74
2022-08-02T01:28:32.260Z,15.48
2022-08-02T01:31:04.366Z,15.43
2022-08-02T01:33:39.224Z,15.47
2022-08-02T01:36:12.575Z,15.37
2022-08-02T01:38:42.092Z,15.36
2022-08-02T01:41:10.371Z,15.30
2022-08-02T01:43:40.100Z,15.38
2022-08-02T01:46:08.210Z,15.27
2022-08-02T01:48:35.811Z,15.36
2022-08-02T01:51:03.206Z,15.46
2022-08-02T01:53:31.800Z,15.35
2022-08-02T01:56:00.033Z,15.34
2022-08-02T01:58:30.971Z,15.38
2022-08-02T02:00:58.731Z,15.24
2022-08-02T02:03:27.031Z,15.22
2022-08-02T02:05:57.430Z,15.22
2022-08-02T02:08:29.706Z,15.14
2022-08-02T02:10:57.715Z,15.06
2022-08-02T02:13:45.411Z,15.06
2022-08-02T02:16:13.917Z,15.04
2022-08-02T02:18:43.816Z,15.02
2022-08-02T02:21:12.412Z,15.02
2022-08-02T02:23:39.467Z,14.86
2022-08-02T02:26:10.002Z,14.96
2022-08-02T02:28:39.279Z,14.89
2022-08-02T02:31:16.195Z,14.87
2022-08-02T02:33:55.511Z,14.67
2022-08-02T02:36:22.851Z,14.76
2022-08-02T02:38:52.740Z,14.73
2022-08-02T02:41:21.115Z,14.51
2022-08-02T02:43:48.718Z,14.49
2022-08-02T02:46:18.403Z,14.42
2022-08-02T02:48:45.258Z,14.46
2022-08-02T02:51:14.347Z,14.51
2022-08-02T02:54:30.225Z,14.57
2022-08-02T02:56:30.296Z,14.56
2022-08-02T02:58:57.568Z,14.50
2022-08-02T03:01:56.242Z,14.52
2022-08-02T03:04:22.365Z,14.48
2022-08-02T03:06:49.104Z,14.37
2022-08-02T03:09:15.648Z,14.36
2022-08-02T03:11:42.791Z,14.31
2022-08-02T03:14:11.440Z,14.29
2022-08-02T03:16:49.894Z,14.30
2022-08-02T03:19:17.939Z,14.31
2022-08-02T03:21:48.681Z,13.92
2022-08-02T03:24:27.778Z,14.20
2022-08-02T03:26:55.043Z,14.19
2022-08-02T03:29:21.447Z,14.12
2022-08-02T03:31:48.008Z,14.14
2022-08-02T03:34:14.553Z,13.99
2022-08-02T03:36:42.160Z,14.19
2022-08-02T03:39:09.392Z,14.14
2022-08-02T03:41:38.582Z,14.15
2022-08-02T03:44:07.548Z,14.12
2022-08-02T03:46:34.635Z,14.13
2022-08-02T03:49:02.133Z,14.09
2022-08-02T03:51:28.788Z,14.16
2022-08-02T03:53:56.806Z,14.06
2022-08-02T03:56:23.678Z,13.96
2022-08-02T03:58:50.452Z,14.09
2022-08-02T04:01:16.981Z,14.07
2022-08-02T04:03:43.555Z,14.03
2022-08-02T04:06:09.984Z,14.04
2022-08-02T04:08:38.343Z,14.08
2022-08-02T04:11:24.561Z,14.15
2022-08-02T04:13:51.894Z,14.17
2022-08-02T04:16:23.546Z,14.14
2022-08-02T04:19:00.417Z,13.99
2022-08-02T04:21:49.955Z,13.95
2022-08-02T04:24:20.613Z,14.04
2022-08-02T04:26:52.552Z,13.97
2022-08-02T04:29:19.849Z,14.16
2022-08-02T04:31:46.411Z,14.27
2022-08-02T04:34:16.099Z,14.28
2022-08-02T04:36:43.418Z,14.32
2022-08-02T04:39:12.759Z,14.38
2022-08-02T04:41:44.458Z,14.38
2022-08-02T04:44:12.285Z,14.54
2022-08-02T04:46:39.652Z,14.63
2022-08-02T04:49:06.633Z,14.68
2022-08-02T04:51:37.717Z,14.77
2022-08-02T04:54:09.420Z,14.64
2022-08-02T04:56:40.960Z,14.96
2022-08-02T04:59:07.845Z,14.98
2022-08-02T05:01:37.993Z,15.19
2022-08-02T05:04:05.129Z,15.32
2022-08-02T05:06:34.974Z,15.36
2022-08-02T05:09:01.692Z,15.49
2022-08-02T05:11:35.896Z,15.44
2022-08-02T05:14:03.740Z,15.43
2022-08-02T05:16:31.453Z,15.70
2022-08-02T05:18:59.823Z,15.70
2022-08-02T05:21:26.235Z,15.62
2022-08-02T05:23:52.672Z,15.91
2022-08-02T05:26:22.261Z,15.90
2022-08-02T05:28:50.471Z,15.66
2022-08-02T05:31:16.895Z,15.80
2022-08-02T05:33:43.855Z,15.77
2022-08-02T05:36:14.090Z,15.79
2022-08-02T05:38:42.373Z,16.10
2022-08-02T05:41:15.988Z,15.77
2022-08-02T05:43:42.578Z,16.11
2022-08-02T05:46:09.067Z,16.09
2022-08-02T05:48:35.994Z,16.45
2022-08-02T05:51:11.043Z,16.49
2022-08-02T05:53:45.203Z,16.62
2022-08-02T05:56:31.719Z,16.62
2022-08-02T05:59:10.528Z,16.93
2022-08-02T06:01:40.660Z,17.99
2022-08-02T06:04:09.548Z,19.54
2022-08-02T06:06:37.588Z,19.43
2022-08-02T06:09:09.689Z,19.81
2022-08-02T06:12:02.048Z,19.72
2022-08-02T06:14:32.892Z,20.99
2022-08-02T06:17:01.090Z,20.11
2022-08-02T06:19:31.404Z,19.91
2022-08-02T06:22:33.202Z,20.13
2022-08-02T06:25:03.310Z,21.15
2022-08-02T06:27:30.252Z,21.24
2022-08-02T06:29:57.858Z,21.74
2022-08-02T06:32:27.382Z,21.79
2022-08-02T06:34:54.064Z,21.70
2022-08-02T06:37:35.671Z,21.20
2022-08-02T06:40:07.093Z,21.90
2022-08-02T06:43:01.890Z,21.49
2022-08-02T06:45:28.362Z,23.56
2022-08-02T06:47:57.339Z,23.40
2022-08-02T06:50:23.964Z,23.07
2022-08-02T06:52:50.368Z,23.21
2022-08-02T06:55:17.933Z,24.64
2022-08-02T06:57:44.364Z,23.95
2022-08-02T07:00:12.792Z,24.20
2022-08-02T07:02:43.703Z,24.54
2022-08-02T07:05:10.321Z,23.57
2022-08-02T07:07:37.199Z,23.98
2022-08-02T07:10:04.240Z,24.28
2022-08-02T07:12:32.989Z,25.93
2022-08-02T07:15:05.619Z,24.83
2022-08-02T07:17:32.540Z,25.13
2022-08-02T07:19:59.906Z,24.49
2022-08-02T07:22:28.051Z,25.24
2022-08-02T07:24:58.928Z,26.05
2022-08-02T07:27:26.198Z,27.11
2022-08-02T07:29:53.019Z,24.69
2022-08-02T07:32:22.794Z,25.87
2022-08-02T07:34:50.827Z,26.59
2022-08-02T07:37:35.955Z,25.33
2022-08-02T07:40:14.191Z,25.18
2022-08-02T07:42:45.823Z,26.08
2022-08-02T07:45:14.047Z,24.34
2022-08-02T07:47:41.677Z,25.91
2022-08-02T07:50:10.158Z,27.97
2022-08-02T07:52:37.361Z,28.41
2022-08-02T07:55:07.278Z,26.10
2022-08-02T07:57:34.207Z,27.03
2022-08-02T08:00:00.713Z,27.70
2022-08-02T08:02:27.270Z,26.10
2022-08-02T08:04:54.075Z,26.28
2022-08-02T08:07:20.574Z,26.10
2022-08-02T08:09:48.181Z,27.72
2022-08-02T08:12:16.300Z,27.82
2022-08-02T08:14:43.814Z,28.93
2022-08-02T08:17:10.592Z,29.17
2022-08-02T08:19:51.573Z,29.21
2022-08-02T08:22:22.580Z,28.49
2022-08-02T08:24:50.420Z,30.38
2022-08-02T08:27:18.147Z,29.02
2022-08-02T08:29:45.338Z,28.12
2022-08-02T08:32:17.598Z,30.91
2022-08-02T08:34:47.379Z,30.76
2022-08-02T08:37:16.512Z,29.46
2022-08-02T08:39:58.354Z,28.48
2022-08-02T08:42:30.620Z,30.50
2022-08-02T08:44:58.860Z,32.01
2022-08-02T08:47:34.643Z,31.61
2022-08-02T08:50:25.515Z,32.27
2022-08-02T08:53:07.237Z,31.11
2022-08-02T08:55:35.680Z,29.60
2022-08-02T08:58:04.574Z,31.96
2022-08-02T09:00:33.448Z,30.00
2022-08-02T09:03:03.305Z,29.56
2022-08-02T09:05:29.822Z,31.46
2022-08-02T09:07:56.197Z,30.30
2022-08-02T09:10:32.366Z,31.24
2022-08-02T09:13:37.825Z,31.71
2022-08-02T09:16:14.566Z,31.77
2022-08-02T09:18:46.368Z,31.86
2022-08-02T09:21:15.423Z,32.93
2022-08-02T09:23:46.971Z,32.96
2022-08-02T09:26:24.068Z,30.36
2022-08-02T09:29:01.213Z,30.48
2022-08-02T09:31:27.961Z,31.51
2022-08-02T09:34:00.027Z,31.65
2022-08-02T09:36:28.746Z,30.31
2022-08-02T09:39:04.922Z,31.59
2022-08-02T09:41:33.593Z,30.36
2022-08-02T09:44:04.854Z,29.72
2022-08-02T09:46:43.716Z,31.94
2022-08-02T09:49:16.562Z,33.73
2022-08-02T09:51:46.668Z,33.29
2022-08-02T09:54:27.000Z,33.49
2022-08-02T09:56:56.283Z,32.33
2022-08-02T09:59:27.107Z,33.69
2022-08-02T10:02:02.509Z,34.63
2022-08-02T10:04:34.175Z,33.38
2022-08-02T10:07:04.854Z,30.26
2022-08-02T10:09:32.426Z,33.50
2022-08-02T10:11:59.853Z,34.32
2022-08-02T10:14:26.926Z,31.50
2022-08-02T10:16:55.167Z,30.92
2022-08-02T10:20:02.491Z,31.31
2022-08-02T10:22:15.531Z,31.94
2022-08-02T10:24:48.036Z,32.10
2022-08-02T10:27:19.982Z,32.99
2022-08-02T10:29:54.932Z,33.45
2022-08-02T10:32:34.954Z,34.37
2022-08-02T10:35:23.332Z,34.57
2022-08-02T10:37:56.683Z,32.67
2022-08-02T10:40:24.252Z,31.71
2022-08-02T10:42:54.557Z,32.88
2022-08-02T10:45:22.750Z,33.46
2022-08-02T10:48:25.213Z,33.94
2022-08-02T10:50:53.021Z,33.96
2022-08-02T10:53:34.271Z,31.23
2022-08-02T10:56:02.798Z,33.48
2022-08-02T10:58:33.865Z,33.93
2022-08-02T11:01:07.643Z,35.58
2022-08-02T11:03:39.398Z,35.53
2022-08-02T11:06:26.092Z,33.69
2022-08-02T11:09:31.777Z,31.58
2022-08-02T11:12:10.844Z,35.21
2022-08-02T11:14:43.521Z,34.69
2022-08-02T11:17:14.799Z,33.44
2022-08-02T11:20:12.185Z,33.68
2022-08-02T11:22:43.386Z,33.75
2022-08-02T11:25:21.704Z,33.97
2022-08-02T11:27:58.829Z,34.28
2022-08-02T11:30:27.484Z,35.37
2022-08-02T11:32:58.557Z,34.51
2022-08-02T11:35:32.803Z,34.27
2022-08-02T11:38:13.007Z,33.99
2022-08-02T11:40:39.433Z,33.99
2022-08-02T11:43:18.553Z,34.74
2022-08-02T11:45:45.489Z,35.12
2022-08-02T11:48:12.080Z,34.66
2022-08-02T11:50:38.970Z,33.56
2022-08-02T11:53:17.414Z,34.51
2022-08-02T11:55:43.916Z,35.56
2022-08-02T11:58:12.867Z,35.05
2022-08-02T12:00:39.952Z,35.87
2022-08-02T12:03:07.148Z,34.74
2022-08-02T12:06:04.491Z,34.97
2022-08-02T12:08:25.130Z,34.29
2022-08-02T12:10:52.211Z,36.38
2022-08-02T12:13:18.868Z,35.07
2022-08-02T12:15:46.782Z,35.36
2022-08-02T12:18:41.380Z,36.29
2022-08-02T12:21:26.812Z,36.95
2022-08-02T12:24:01.062Z,36.81
2022-08-02T12:26:29.224Z,35.70
2022-08-02T12:29:01.461Z,35.93
2022-08-02T12:31:57.609Z,36.64
2022-08-02T12:34:31.268Z,37.09
2022-08-02T12:37:02.184Z,34.94
2022-08-02T12:39:43.104Z,34.95
2022-08-02T12:42:13.536Z,35.61
2022-08-02T12:44:52.992Z,35.91
2022-08-02T12:47:21.794Z,38.01
2022-08-02T12:50:11.887Z,35.98
2022-08-02T12:52:38.783Z,34.88
2022-08-02T12:55:16.738Z,36.30
2022-08-02T12:57:54.377Z,36.19
2022-08-02T13:00:32.322Z,35.11
2022-08-02T13:02:59.599Z,33.65
2022-08-02T13:05:29.022Z,34.33
2022-08-02T13:08:16.601Z,35.29
2022-08-02T13:10:43.918Z,36.04
2022-08-02T13:13:12.817Z,36.46
2022-08-02T13:15:49.088Z,35.40
2022-08-02T13:18:18.361Z,34.80
2022-08-02T13:20:46.364Z,34.77
2022-08-02T13:23:21.914Z,33.42
2022-08-02T13:25:52.400Z,34.12
2022-08-02T13:28:20.228Z,32.89
2022-08-02T13:30:47.728Z,32.68
2022-08-02T13:33:14.676Z,33.15
2022-08-02T13:35:42.792Z,32.68
2022-08-02T13:38:09.854Z,32.21
2022-08-02T13:41:06.414Z,32.29
2022-08-02T13:43:54.019Z,32.25
2022-08-02T13:46:28.885Z,31.62
2022-08-02T13:48:56.210Z,31.70
2022-08-02T13:51:22.673Z,31.60
2022-08-02T13:53:49.423Z,30.98
2022-08-02T13:56:16.885Z,31.14
2022-08-02T13:58:45.729Z,30.55
2022-08-02T14:01:12.908Z,31.11
2022-08-02T14:04:07.687Z,30.73
2022-08-02T14:06:27.341Z,30.18
2022-08-02T14:08:54.086Z,29.92
2022-08-02T14:11:20.719Z,30.66
2022-08-02T14:13:47.211Z,30.60
2022-08-02T14:16:13.705Z,30.60
2022-08-02T14:18:40.193Z,30.46
2022-08-02T14:21:06.597Z,30.37
2022-08-02T14:23:49.746Z,30.47
2022-08-02T14:26:27.246Z,30.56
2022-08-02T14:28:54.584Z,30.40
2022-08-02T14:31:21.022Z,29.94
2022-08-02T14:33:47.470Z,30.68
2022-08-02T14:36:14.217Z,30.48
2022-08-02T14:38:40.745Z,29.91
2022-08-02T14:41:07.193Z,30.07
2022-08-02T14:43:52.041Z,30.51
2022-08-02T14:46:18.655Z,30.61
2022-08-02T14:48:49.955Z,30.23
2022-08-02T14:51:16.906Z,30.04
2022-08-02T14:53:49.200Z,30.35
2022-08-02T14:56:16.504Z,30.17
2022-08-02T14:58:43.161Z,30.22
2022-08-02T15:01:09.939Z,30.15
2022-08-02T15:03:43.583Z,30.10
2022-08-02T15:06:10.274Z,30.21
2022-08-02T15:08:36.833Z,29.90
2022-08-02T15:11:03.584Z,30.10
2022-08-02T15:13:30.272Z,30.01
2022-08-02T15:15:56.727Z,29.85
2022-08-02T15:18:23.258Z,29.80
2022-08-02T15:20:57.317Z,29.51
2022-08-02T15:23:37.196Z,29.28
2022-08-02T15:26:04.788Z,29.53
2022-08-02T15:28:31.394Z,29.79
2022-08-02T15:31:00.973Z,29.79
2022-08-02T15:33:27.390Z,29.64
2022-08-02T15:35:53.821Z,29.64
2022-08-02T15:38:20.254Z,29.61
2022-08-02T15:40:49.636Z,29.26
2022-08-02T15:43:17.920Z,29.66
2022-08-02T15:45:44.521Z,29.45
2022-08-02T15:48:11.587Z,29.37
2022-08-02T15:50:39.031Z,29.32
2022-08-02T15:53:05.441Z,29.39
2022-08-02T15:55:40.067Z,29.53
2022-08-02T15:58:18.582Z,29.02
2022-08-02T16:00:49.918Z,29.19
2022-08-02T16:03:16.347Z,29.39
2022-08-02T16:05:42.835Z,29.34
2022-08-02T16:08:09.241Z,29.39
2022-08-02T16:10:35.945Z,29.45
2022-08-02T16:13:21.134Z,29.14
2022-08-02T16:15:47.555Z,29.21
2022-08-02T16:18:13.942Z,29.04
2022-08-02T16:20:40.421Z,29.24
2022-08-02T16:23:08.704Z,28.90
2022-08-02T16:25:41.754Z,29.07
2022-08-02T16:28:08.802Z,29.04
2022-08-02T16:30:35.313Z,29.04
2022-08-02T16:33:02.167Z,28.80
2022-08-02T16:35:29.087Z,28.72
2022-08-02T16:37:55.681Z,28.76
2022-08-02T16:40:22.368Z,28.87
2022-08-02T16:42:51.255Z,28.86
2022-08-02T16:45:22.613Z,28.81
2022-08-02T16:47:55.162Z,28.68
2022-08-02T16:50:27.105Z,28.66
2022-08-02T16:52:58.113Z,28.68
2022-08-02T16:55:25.738Z,28.39
2022-08-02T16:57:52.800Z,28.59
2022-08-02T17:00:23.944Z,28.44
2022-08-02T17:02:50.730Z,28.29
2022-08-02T17:05:17.235Z,28.13
2022-08-02T17:08:06.012Z,28.24
2022-08-02T17:10:31.549Z,28.11
2022-08-02T17:12:58.758Z,28.14
2022-08-02T17:16:01.219Z,28.07
2022-08-02T17:18:27.554Z,27.94
2022-08-02T17:20:54.475Z,27.91
2022-08-02T17:23:20.947Z,27.93
2022-08-02T17:25:52.453Z,27.90
2022-08-02T17:28:19.890Z,27.81
2022-08-02T17:30:46.461Z,27.68
2022-08-02T17:33:13.235Z,27.64
2022-08-02T17:35:51.896Z,27.47
2022-08-02T17:38:26.193Z,27.56
2022-08-02T17:40:56.726Z,27.42
2022-08-02T17:43:29.005Z,27.49
2022-08-02T17:46:00.815Z,27.20
2022-08-02T17:48:55.745Z,27.34
2022-08-02T17:52:14.776Z,27.34
2022-08-02T17:54:10.478Z,27.07
2022-08-02T17:56:37.018Z,27.18
2022-08-02T17:59:20.120Z,27.10
2022-08-02T18:01:53.103Z,27.10
2022-08-02T18:04:27.616Z,26.77
2022-08-02T18:07:04.545Z,26.60
2022-08-02T18:09:41.486Z,26.52
2022-08-02T18:12:11.351Z,26.42
2022-08-02T18:14:46.141Z,26.09
2022-08-02T18:17:15.460Z,25.84
2022-08-02T18:19:55.522Z,25.53
2022-08-02T18:22:26.980Z,25.45
2022-08-02T18:24:54.073Z,25.39
2022-08-02T18:27:21.217Z,25.29
2022-08-02T18:29:47.634Z,25.21
2022-08-02T18:34:00.625Z,25.10
2022-08-02T18:35:13.474Z,24.91
2022-08-02T18:37:43.884Z,24.78
2022-08-02T18:40:14.862Z,24.71
2022-08-02T18:42:41.602Z,24.40
2022-08-02T18:45:08.767Z,24.05
2022-08-02T18:47:51.085Z,23.74
2022-08-02T18:50:19.867Z,23.69
2022-08-02T18:52:47.994Z,23.50
2022-08-02T18:55:17.620Z,23.43
2022-08-02T18:58:18.723Z,23.32
2022-08-02T19:00:51.491Z,23.22
2022-08-02T19:03:19.268Z,23.22
2022-08-02T19:05:51.657Z,23.10
2022-08-02T19:08:20.627Z,22.86
2022-08-02T19:10:53.183Z,22.81
2022-08-02T19:13:22.546Z,22.67
2022-08-02T19:15:49.229Z,22.53
2022-08-02T19:18:15.756Z,22.29
2022-08-02T19:20:48.187Z,22.16
2022-08-02T19:23:17.047Z,21.95
2022-08-02T19:25:50.071Z,21.94
2022-08-02T19:28:26.164Z,21.95
2022-08-02T19:30:56.744Z,21.70
2022-08-02T19:33:54.331Z,21.70
2022-08-02T19:38:59.274Z,21.27
2022-08-02T19:41:25.832Z,21.38
2022-08-02T19:44:23.314Z,21.27
2022-08-02T19:46:38.819Z,21.15
2022-08-02T19:49:16.706Z,21.12
2022-08-02T19:51:55.816Z,20.98
2022-08-02T19:54:35.866Z,20.95
2022-08-02T19:57:10.743Z,20.69
2022-08-02T19:59:44.616Z,20.65
2022-08-02T20:02:11.618Z,20.64
2022-08-02T20:04:38.356Z,20.78
2022-08-02T20:07:04.792Z,20.59
2022-08-02T20:09:33.511Z,20.53
2022-08-02T20:12:14.174Z,20.43
2022-08-02T20:14:50.996Z,20.45
2022-08-02T20:17:20.683Z,20.36
2022-08-02T20:19:47.435Z,20.27
2022-08-02T20:22:16.323Z,20.13
2022-08-02T20:24:43.151Z,20.00
2022-08-02T20:27:17.373Z,19.87
2022-08-02T20:29:51.350Z,19.75
2022-08-02T20:32:24.503Z,19.79
2022-08-02T20:34:52.670Z,19.78
2022-08-02T20:38:00.131Z,19.75
2022-08-02T20:40:06.892Z,19.74
2022-08-02T20:42:34.560Z,19.69
2022-08-02T20:45:04.489Z,19.65
2022-08-02T20:47:39.077Z,19.65
2022-08-02T20:50:31.396Z,19.66
2022-08-02T20:53:02.587Z,19.51
2022-08-02T20:55:31.674Z,19.38
2022-08-02T20:58:01.322Z,19.31
2022-08-02T21:00:28.835Z,19.31
2022-08-02T21:02:55.468Z,19.17
2022-08-02T21:05:43.609Z,19.27
2022-08-02T21:08:14.198Z,19.19
2022-08-02T21:10:50.286Z,19.15
2022-08-02T21:13:23.161Z,19.13
2022-08-02T21:15:52.141Z,19.06
2022-08-02T21:18:20.217Z,19.00
2022-08-02T21:20:55.867Z,18.92
2022-08-02T21:23:23.342Z,18.83
2022-08-02T21:25:56.930Z,18.71
2022-08-02T21:28:24.809Z,18.58
2022-08-02T21:31:10.922Z,18.67
2022-08-02T21:33:56.922Z,18.58
2022-08-02T21:36:31.801Z,18.53
2022-08-02T21:38:59.649Z,18.44
2022-08-02T21:41:40.055Z,18.35
2022-08-02T21:44:13.690Z,18.41
2022-08-02T21:46:44.302Z,18.34
2022-08-02T21:49:11.486Z,18.46
2022-08-02T21:51:39.108Z,18.34
2022-08-02T21:54:18.148Z,18.23
2022-08-02T21:56:48.343Z,18.11
2022-08-02T21:59:19.152Z,18.18
2022-08-02T22:01:54.061Z,18.10
2022-08-02T22:04:22.082Z,18.07
2022-08-02T22:06:49.080Z,18.03
2022-08-02T22:09:17.283Z,18.03
2022-08-02T22:11:44.920Z,18.13
2022-08-02T22:14:12.700Z,17.93
2022-08-02T22:16:39.479Z,17.85
2022-08-02T22:19:06.567Z,17.95
2022-08-02T22:21:33.631Z,17.99
2022-08-02T22:24:29.743Z,17.88
2022-08-02T22:26:57.786Z,17.74
2022-08-02T22:29:24.423Z,17.50
2022-08-02T22:31:53.074Z,17.48
2022-08-02T22:34:36.815Z,17.38
2022-08-02T22:37:07.464Z,17.42
2022-08-02T22:39:34.463Z,17.41
2022-08-02T22:42:05.769Z,17.35
2022-08-02T22:44:33.836Z,17.19
2022-08-02T22:47:13.822Z,17.13
2022-08-02T22:49:44.648Z,16.93
2022-08-02T22:52:20.120Z,16.98
2022-08-02T22:54:47.380Z,16.95
2022-08-02T22:57:14.001Z,17.01
2022-08-02T22:59:05.897Z,21.51
2022-08-02T22:59:40.952Z,16.96
2022-08-02T23:02:08.654Z,16.69
2022-08-02T23:04:36.490Z,16.87
2022-08-02T23:07:02.911Z,16.91
2022-08-02T23:09:29.378Z,17.00
2022-08-02T23:11:55.864Z,16.91
2022-08-02T23:14:22.356Z,16.82
2022-08-02T23:17:08.454Z,16.65
2022-08-02T23:19:53.063Z,16.70
2022-08-02T23:22:29.505Z,16.52
2022-08-02T23:25:00.506Z,16.47
2022-08-02T23:27:27.647Z,16.59
2022-08-02T23:29:55.765Z,16.62
2022-08-02T23:32:22.936Z,16.49
2022-08-02T23:34:52.798Z,16.51
2022-08-02T23:37:19.179Z,16.43
2022-08-02T23:39:46.102Z,16.45
2022-08-02T23:42:12.498Z,16.39
2022-08-02T23:44:39.516Z,16.33
2022-08-02T23:47:06.243Z,16.35
2022-08-02T23:49:32.994Z,16.39
2022-08-02T23:52:01.836Z,16.22
2022-08-02T23:54:29.370Z,16.17
2022-08-02T23:56:56.358Z,16.16
2022-08-02T23:59:22.916Z,16.08
